Time;durP1;ratioP1;P1;durP2;ratioP2;P2;SDS_P1;SDS_P2;PMS_P1;PMS_P2;Temp;Humidity;BMP_temperature;BMP_pressure;BME280_temperature;BME280_humidity;BME280_pressure;Samples;Min_cycle;Max_cycle;Signal;HPM_P1;HPM_P2
2022/05/15 00:01:54;;;;;;;9.75;4.18;;;;;;;;;;4940061;29;20035;-94
2022/05/15 00:04:20;;;;;;;11.05;4.30;;;;;;;;;;4923740;29;20028;-95
2022/05/15 00:06:46;;;;;;;8.68;4.03;;;;;;;;;;4939744;29;20192;-94
2022/05/15 00:09:12;;;;;;;9.00;3.90;;;;;;;;;;4939504;29;20078;-93
2022/05/15 00:11:38;;;;;;;9.63;3.70;;;;;;;;;;4939447;29;20035;-96
2022/05/15 00:14:04;;;;;;;8.23;3.67;;;;;;;;;;4939372;29;20156;-95
2022/05/15 00:16:34;;;;;;;6.85;3.63;;;;;;;;;;4979126;28;20073;-95
2022/05/15 00:19:00;;;;;;;6.97;4.13;;;;;;;;;;4999033;28;20073;-95
2022/05/15 00:21:26;;;;;;;7.50;3.80;;;;;;;;;;4999105;28;20022;-94
2022/05/15 00:23:52;;;;;;;9.32;3.58;;;;;;;;;;4998893;28;20026;-95
2022/05/15 00:26:18;;;;;;;9.77;4.03;;;;;;;;;;4981548;28;20034;-95
2022/05/15 00:28:44;;;;;;;8.02;4.00;;;;;;;;;;4981410;28;20129;-94
2022/05/15 00:31:11;;;;;;;5.82;4.07;;;;;;;;;;4998465;28;20093;-95
2022/05/15 00:33:38;;;;;;;8.52;4.07;;;;;;;;;;4998948;28;20031;-95
2022/05/15 00:36:04;;;;;;;11.25;5.07;;;;;;;;;;4998820;28;20080;-95
2022/05/15 00:38:30;;;;;;;5.95;4.20;;;;;;;;;;4998806;28;20321;-94
2022/05/15 00:40:56;;;;;;;5.88;3.75;;;;;;;;;;4981463;28;20026;-95
2022/05/15 00:43:37;;;;;;;6.68;3.90;;;;;;;;;;4998441;28;20049;-95
2022/05/15 00:46:05;;;;;;;8.68;4.13;;;;;;;;;;4981396;28;20034;-95
2022/05/15 00:48:31;;;;;;;9.57;4.00;;;;;;;;;;4981445;28;20092;-95
2022/05/15 00:50:58;;;;;;;10.80;3.85;;;;;;;;;;4998547;28;20026;-94
2022/05/15 00:53:25;;;;;;;11.35;4.22;;;;;;;;;;4981379;28;20026;-94
2022/05/15 00:55:51;;;;;;;8.05;3.53;;;;;;;;;;4998289;28;20077;-95
2022/05/15 00:58:19;;;;;;;7.90;3.70;;;;;;;;;;4998170;28;20046;-95
2022/05/15 01:00:45;;;;;;;8.23;4.28;;;;;;;;;;4981136;28;20026;-94
2022/05/15 01:03:15;;;;;;;9.80;4.00;;;;;;;;;;4998153;28;20111;-93
2022/05/15 01:05:43;;;;;;;6.00;4.05;;;;;;;;;;4980852;28;20058;-94
2022/05/15 01:08:10;;;;;;;7.68;4.00;;;;;;;;;;4998318;28;20031;-94
2022/05/15 01:10:37;;;;;;;8.35;3.85;;;;;;;;;;4998116;28;20416;-95
2022/05/15 01:13:04;;;;;;;14.02;4.32;;;;;;;;;;4998105;28;20022;-94
2022/05/15 01:15:31;;;;;;;8.15;4.45;;;;;;;;;;4998309;28;20042;-94
2022/05/15 01:17:57;;;;;;;15.90;4.53;;;;;;;;;;4980976;28;20022;-94
2022/05/15 01:20:24;;;;;;;7.70;4.18;;;;;;;;;;4997961;28;20030;-93
2022/05/15 01:22:52;;;;;;;7.82;4.82;;;;;;;;;;4998266;28;20022;-95
2022/05/15 01:25:22;;;;;;;9.50;5.32;;;;;;;;;;4997942;28;20030;-92
2022/05/15 01:27:52;;;;;;;7.05;5.05;;;;;;;;;;4997908;28;20030;-95
2022/05/15 01:30:19;;;;;;;8.73;4.55;;;;;;;;;;4980751;28;20112;-93
2022/05/15 01:32:45;;;;;;;8.32;4.45;;;;;;;;;;4997857;28;20405;-94
2022/05/15 01:35:11;;;;;;;10.95;4.90;;;;;;;;;;4998100;28;20034;-94
2022/05/15 01:37:37;;;;;;;8.02;4.68;;;;;;;;;;4998010;28;20022;-95
2022/05/15 01:40:04;;;;;;;10.13;5.30;;;;;;;;;;4998019;28;20026;-95
2022/05/15 01:42:30;;;;;;;14.45;5.40;;;;;;;;;;4997697;28;20069;-93
2022/05/15 01:44:57;;;;;;;9.98;4.72;;;;;;;;;;4998012;28;20049;-95
2022/05/15 01:47:23;;;;;;;12.45;5.88;;;;;;;;;;4998021;28;20037;-94
2022/05/15 01:49:49;;;;;;;9.88;5.75;;;;;;;;;;4997868;28;20022;-95
2022/05/15 01:52:15;;;;;;;10.98;5.53;;;;;;;;;;4980662;28;20026;-95
2022/05/15 01:54:41;;;;;;;9.65;5.45;;;;;;;;;;4997678;28;20026;-93
2022/05/15 01:57:07;;;;;;;8.90;4.57;;;;;;;;;;4997777;28;20049;-93
2022/05/15 01:59:33;;;;;;;10.23;5.45;;;;;;;;;;4997926;28;20038;-93
2022/05/15 02:01:59;;;;;;;7.45;4.78;;;;;;;;;;4997822;28;20022;-93
2022/05/15 02:04:25;;;;;;;7.38;5.07;;;;;;;;;;4997709;28;20225;-94
2022/05/15 02:06:51;;;;;;;9.02;5.18;;;;;;;;;;4997691;28;20065;-94
2022/05/15 02:09:17;;;;;;;10.70;5.25;;;;;;;;;;4997920;28;20026;-94
2022/05/15 02:11:43;;;;;;;9.07;4.63;;;;;;;;;;4997977;28;20047;-94
2022/05/15 02:14:11;;;;;;;9.70;4.50;;;;;;;;;;4997603;28;20046;-95
2022/05/15 02:16:37;;;;;;;11.07;4.72;;;;;;;;;;4997599;28;20022;-94
2022/05/15 02:19:03;;;;;;;7.50;4.72;;;;;;;;;;5000454;28;20038;-93
2022/05/15 02:21:30;;;;;;;8.43;5.20;;;;;;;;;;5000837;28;20523;-95
2022/05/15 02:23:58;;;;;;;12.77;5.82;;;;;;;;;;5005711;28;20030;-93
2022/05/15 03:30:18;;;;;;;13.13;4.97;;;;;;;;;;5295328;23;20053;-95
2022/05/15 03:47:30;;;;;;;9.65;5.30;;;;;;;;;;5165474;23;20066;-95
2022/05/15 03:50:01;;;;;;;10.15;5.30;;;;;;;;;;5000204;28;20042;-96
2022/05/15 03:52:27;;;;;;;7.47;4.60;;;;;;;;;;4999559;28;20026;-96
2022/05/15 03:54:53;;;;;;;11.23;5.65;;;;;;;;;;5000587;28;20030;-96
2022/05/15 03:57:19;;;;;;;12.65;5.15;;;;;;;;;;5003137;28;20104;-95
2022/05/15 03:59:46;;;;;;;10.85;4.88;;;;;;;;;;5020379;28;20022;-96
2022/05/15 04:02:16;;;;;;;9.05;4.78;;;;;;;;;;5020089;28;20102;-95
2022/05/15 04:04:42;;;;;;;12.00;5.22;;;;;;;;;;5020157;28;20022;-96
2022/05/15 04:07:08;;;;;;;11.38;5.10;;;;;;;;;;5020445;28;20320;-96
2022/05/15 04:09:38;;;;;;;8.63;4.60;;;;;;;;;;5020283;28;20026;-94
2022/05/15 04:12:04;;;;;;;8.65;4.53;;;;;;;;;;5020910;28;20033;-95
2022/05/15 04:14:30;;;;;;;7.13;4.68;;;;;;;;;;5005798;28;20022;-95
2022/05/15 04:16:57;;;;;;;11.82;4.85;;;;;;;;;;5023095;28;20034;-96
2022/05/15 04:19:23;;;;;;;12.30;5.30;;;;;;;;;;5021829;28;20096;-96
2022/05/15 04:21:49;;;;;;;8.90;5.20;;;;;;;;;;5005199;28;20089;-96
2022/05/15 04:43:01;;;;;;;12.90;4.90;;;;;;;;;;5027935;28;20103;-96
2022/05/15 04:45:27;;;;;;;7.03;4.25;;;;;;;;;;5027427;28;20038;-95
2022/05/15 04:47:53;;;;;;;12.50;4.82;;;;;;;;;;5018445;28;20030;-94
2022/05/15 04:50:19;;;;;;;9.30;4.28;;;;;;;;;;5018219;28;20033;-95
2022/05/15 04:52:46;;;;;;;10.35;4.70;;;;;;;;;;5018306;28;20025;-93
2022/05/15 04:55:12;;;;;;;10.02;4.53;;;;;;;;;;4996261;28;20049;-95
2022/05/15 04:57:38;;;;;;;9.25;4.50;;;;;;;;;;5000485;28;20424;-94
2022/05/15 05:00:05;;;;;;;9.38;4.70;;;;;;;;;;5012937;28;20018;-95
2022/05/15 05:02:31;;;;;;;8.65;4.57;;;;;;;;;;5018777;28;20045;-95
2022/05/15 05:04:59;;;;;;;8.43;4.47;;;;;;;;;;5021635;28;20348;-95
2022/05/15 05:31:19;;;;;;;14.25;5.15;;;;;;;;;;5795543;23;20339;-95
2022/05/15 05:33:46;;;;;;;7.68;4.80;;;;;;;;;;4997615;28;20356;-95
2022/05/15 06:48:55;;;;;;;9.57;3.17;;;;;;;;;;5089547;23;20281;-96
2022/05/15 06:51:22;;;;;;;5.43;2.63;;;;;;;;;;5004618;28;20038;-95
2022/05/15 06:53:48;;;;;;;6.95;3.35;;;;;;;;;;5004680;28;20025;-96
2022/05/15 06:59:21;;;;;;;7.10;2.70;;;;;;;;;;5008781;28;20025;-96
2022/05/15 07:30:17;;;;;;;7.15;2.42;;;;;;;;;;4998933;28;20101;-95
2022/05/15 07:33:04;;;;;;;6.88;2.40;;;;;;;;;;5000500;28;20022;-95
2022/05/15 07:35:30;;;;;;;5.80;2.25;;;;;;;;;;4982491;28;20037;-96
2022/05/15 07:37:56;;;;;;;7.05;2.00;;;;;;;;;;4982842;28;20413;-96
2022/05/15 07:40:22;;;;;;;11.68;3.03;;;;;;;;;;5000214;28;20149;-96
2022/05/15 07:42:51;;;;;;;7.95;2.38;;;;;;;;;;4985335;28;20365;-95
2022/05/15 07:45:17;;;;;;;6.22;1.80;;;;;;;;;;4986521;28;20414;-93
2022/05/15 07:47:43;;;;;;;6.93;1.85;;;;;;;;;;4998965;28;20059;-94
2022/05/15 07:50:10;;;;;;;4.45;1.90;;;;;;;;;;4999172;28;20042;-94
2022/05/15 07:52:37;;;;;;;4.68;1.58;;;;;;;;;;5000753;28;20377;-95
2022/05/15 07:55:05;;;;;;;3.70;1.30;;;;;;;;;;4999563;28;20029;-95
2022/05/15 07:57:33;;;;;;;7.80;2.42;;;;;;;;;;5004464;28;20447;-94
2022/05/15 08:00:08;;;;;;;14.52;2.05;;;;;;;;;;4992965;28;20065;-95
2022/05/15 08:02:39;;;;;;;5.13;2.00;;;;;;;;;;5105112;23;20440;-95
2022/05/15 08:28:21;;;;;;;6.13;1.73;;;;;;;;;;5831741;22;20140;-93
2022/05/15 08:30:50;;;;;;;11.88;4.95;;;;;;;;;;5003741;28;20026;-94
2022/05/15 08:38:32;;;;;;;7.15;1.63;;;;;;;;;;5374347;22;20098;-95
2022/05/15 08:41:13;;;;;;;14.77;7.65;;;;;;;;;;5046862;28;20253;-96
2022/05/15 09:17:20;;;;;;;7.45;2.40;;;;;;;;;;5364398;23;20032;-95
2022/05/15 09:30:11;;;;;;;2.78;1.52;;;;;;;;;;5261936;23;20054;-95
2022/05/15 09:32:40;;;;;;;4.47;1.40;;;;;;;;;;5017691;28;20049;-96
2022/05/15 09:35:10;;;;;;;4.10;1.23;;;;;;;;;;5002391;28;20034;-95
2022/05/15 09:43:35;;;;;;;7.88;1.50;;;;;;;;;;5021375;28;20056;-96
2022/05/15 09:46:15;;;;;;;5.82;1.63;;;;;;;;;;5021207;28;20041;-95
2022/05/15 09:48:54;;;;;;;3.58;1.40;;;;;;;;;;5021008;28;20030;-96
2022/05/15 09:51:26;;;;;;;3.80;1.42;;;;;;;;;;5019747;28;20160;-95
2022/05/15 10:42:39;;;;;;;7.30;2.42;;;;;;;;;;6028869;23;20035;-96
2022/05/15 10:45:26;;;;;;;8.65;2.58;;;;;;;;;;4998698;28;20046;-95
2022/05/15 10:51:27;;;;;;;9.55;1.95;;;;;;;;;;5096870;23;20048;-96
2022/05/15 10:57:29;;;;;;;5.80;1.98;;;;;;;;;;4947793;29;20074;-95
2022/05/15 11:00:00;;;;;;;6.82;1.70;;;;;;;;;;4940677;29;20031;-95
2022/05/15 11:02:41;;;;;;;4.38;1.70;;;;;;;;;;4941424;29;20046;-95
2022/05/15 11:05:07;;;;;;;6.00;1.55;;;;;;;;;;4941945;29;20079;-95
2022/05/15 11:07:33;;;;;;;6.25;2.13;;;;;;;;;;4925426;29;20035;-96
2022/05/15 11:10:08;;;;;;;4.57;1.58;;;;;;;;;;4941020;29;20032;-96
2022/05/15 11:12:41;;;;;;;5.90;2.10;;;;;;;;;;4924923;29;20059;-95
2022/05/15 11:15:14;;;;;;;5.15;1.77;;;;;;;;;;4940641;29;20059;-96
2022/05/15 11:18:02;;;;;;;5.68;1.77;;;;;;;;;;4924845;29;20027;-95
2022/05/15 11:20:36;;;;;;;7.15;2.00;;;;;;;;;;4929311;29;20041;-96
2022/05/15 11:23:11;;;;;;;5.55;1.80;;;;;;;;;;4943356;29;20058;-95
2022/05/15 11:28:28;;;;;;;14.43;5.80;;;;;;;;;;5313668;23;20089;-96
2022/05/15 11:31:03;;;;;;;10.00;5.72;;;;;;;;;;5015744;28;20036;-94
2022/05/15 11:33:32;;;;;;;6.05;1.88;;;;;;;;;;4999685;28;20041;-94
2022/05/15 11:36:30;;;;;;;3.90;1.70;;;;;;;;;;5016589;28;20101;-92
2022/05/15 11:38:56;;;;;;;7.05;1.75;;;;;;;;;;5000018;28;20069;-94
2022/05/15 11:41:37;;;;;;;6.03;1.70;;;;;;;;;;4982086;28;20361;-94
2022/05/15 11:44:18;;;;;;;7.47;2.08;;;;;;;;;;4999616;28;20484;-93
2022/05/15 11:46:47;;;;;;;2.93;1.33;;;;;;;;;;4999659;28;20038;-94
2022/05/15 11:49:13;;;;;;;4.72;1.65;;;;;;;;;;4999770;28;20276;-94
2022/05/15 11:51:40;;;;;;;5.60;1.73;;;;;;;;;;4998509;28;20098;-93
2022/05/15 11:54:13;;;;;;;6.88;1.75;;;;;;;;;;4982999;28;20037;-95
2022/05/15 11:56:53;;;;;;;4.63;1.70;;;;;;;;;;4999303;28;20101;-94
2022/05/15 11:59:24;;;;;;;6.70;1.40;;;;;;;;;;4999343;28;20037;-94
2022/05/15 12:01:50;;;;;;;4.85;1.45;;;;;;;;;;4999082;28;20037;-94
2022/05/15 12:04:21;;;;;;;4.47;1.70;;;;;;;;;;4981854;28;20033;-94
2022/05/15 12:06:56;;;;;;;5.70;1.40;;;;;;;;;;4999247;28;20030;-94
2022/05/15 12:09:27;;;;;;;4.30;1.50;;;;;;;;;;4999328;28;20321;-94
2022/05/15 12:11:57;;;;;;;6.85;1.52;;;;;;;;;;4998991;28;20027;-94
2022/05/15 12:14:23;;;;;;;6.32;1.73;;;;;;;;;;4999303;28;20106;-94
2022/05/15 12:17:07;;;;;;;10.55;1.65;;;;;;;;;;4998948;28;20353;-94
2022/05/15 12:19:33;;;;;;;5.05;1.63;;;;;;;;;;4981307;28;20121;-96
2022/05/15 12:22:02;;;;;;;4.75;1.50;;;;;;;;;;4998926;28;20029;-95
2022/05/15 12:24:32;;;;;;;6.97;2.03;;;;;;;;;;4998929;28;20037;-96
2022/05/15 12:27:20;;;;;;;4.55;1.42;;;;;;;;;;4997593;28;20041;-94
2022/05/15 12:30:12;;;;;;;8.98;1.73;;;;;;;;;;5011957;28;20057;-94
2022/05/15 12:32:40;;;;;;;10.18;1.55;;;;;;;;;;5018428;28;20064;-95
2022/05/15 12:35:10;;;;;;;6.00;1.48;;;;;;;;;;5018401;28;20017;-95
2022/05/15 12:37:49;;;;;;;5.40;1.80;;;;;;;;;;5018189;28;20018;-95
2022/05/15 12:40:16;;;;;;;7.05;1.70;;;;;;;;;;5001133;28;20081;-95
2022/05/15 12:42:42;;;;;;;4.65;1.65;;;;;;;;;;5018324;28;20025;-95
2022/05/15 12:45:13;;;;;;;2.65;1.40;;;;;;;;;;5018229;28;20101;-94
2022/05/15 12:47:40;;;;;;;3.25;1.40;;;;;;;;;;5000813;28;20329;-94
2022/05/15 12:50:20;;;;;;;5.65;1.58;;;;;;;;;;5018046;28;20026;-96
2022/05/15 12:52:51;;;;;;;2.67;1.45;;;;;;;;;;5000877;28;20029;-95
2022/05/15 12:55:26;;;;;;;11.18;1.70;;;;;;;;;;5000527;28;20372;-94
2022/05/15 12:57:54;;;;;;;2.92;1.52;;;;;;;;;;5017896;28;20512;-94
2022/05/15 13:00:21;;;;;;;4.90;1.55;;;;;;;;;;5000914;28;20482;-94
2022/05/15 13:02:48;;;;;;;4.35;1.38;;;;;;;;;;5017669;28;20042;-95
2022/05/15 13:05:31;;;;;;;4.72;1.70;;;;;;;;;;5018021;28;20026;-95
2022/05/15 13:07:59;;;;;;;4.18;1.58;;;;;;;;;;5000440;28;20042;-95
2022/05/15 13:10:26;;;;;;;5.90;1.50;;;;;;;;;;5018962;28;20030;-94
2022/05/15 13:12:58;;;;;;;5.32;1.98;;;;;;;;;;5002069;28;20026;-96
2022/05/15 13:15:23;;;;;;;;;;;;;;;;;;5018160;28;20369;-96
2022/05/15 13:17:50;;;;;;;5.32;1.80;;;;;;;;;;5017689;28;19912;-96
2022/05/15 13:20:20;;;;;;;3.92;1.58;;;;;;;;;;5017919;28;20101;-95
2022/05/15 13:22:48;;;;;;;5.68;1.50;;;;;;;;;;5017693;28;20057;-95
2022/05/15 13:25:41;;;;;;;8.05;1.60;;;;;;;;;;5017427;28;20021;-95
2022/05/15 13:28:08;;;;;;;3.15;1.55;;;;;;;;;;5012857;28;20037;-95
2022/05/15 13:30:35;;;;;;;4.00;1.30;;;;;;;;;;5017580;28;20424;-95
2022/05/15 13:33:09;;;;;;;3.75;1.50;;;;;;;;;;5000132;28;20065;-95
2022/05/15 13:35:37;;;;;;;4.13;1.67;;;;;;;;;;5017728;28;20022;-96
2022/05/15 13:38:21;;;;;;;4.55;1.60;;;;;;;;;;5017700;28;20073;-95
2022/05/15 13:43:35;;;;;;;7.00;1.58;;;;;;;;;;5017950;28;20324;-95
2022/05/15 13:46:04;;;;;;;3.85;1.38;;;;;;;;;;5017639;28;20033;-94
2022/05/15 13:48:50;;;;;;;5.07;1.40;;;;;;;;;;5018218;28;20109;-96
2022/05/15 13:51:29;;;;;;;5.05;1.70;;;;;;;;;;5017468;28;20072;-96
2022/05/15 13:54:05;;;;;;;4.07;1.42;;;;;;;;;;5000047;28;20115;-94
2022/05/15 13:56:31;;;;;;;5.35;1.50;;;;;;;;;;5000179;28;20404;-95
2022/05/15 13:58:58;;;;;;;3.65;1.23;;;;;;;;;;5017484;28;20022;-95
2022/05/15 14:01:24;;;;;;;4.88;1.42;;;;;;;;;;5017520;28;20357;-95
2022/05/15 14:03:50;;;;;;;3.22;1.35;;;;;;;;;;4999624;28;20069;-96
2022/05/15 14:06:19;;;;;;;3.63;1.50;;;;;;;;;;5017596;28;20030;-95
2022/05/15 14:09:04;;;;;;;2.67;1.23;;;;;;;;;;5017425;28;20037;-95
2022/05/15 14:11:46;;;;;;;5.97;2.15;;;;;;;;;;5017417;28;20030;-96
2022/05/15 14:14:12;;;;;;;3.25;1.50;;;;;;;;;;5018846;28;20025;-96
2022/05/15 14:16:39;;;;;;;2.88;1.40;;;;;;;;;;5020389;28;20100;-94
2022/05/15 14:19:18;;;;;;;6.53;1.60;;;;;;;;;;5004312;28;20444;-96
2022/05/15 14:22:17;;;;;;;4.68;1.38;;;;;;;;;;5020906;28;20424;-95
2022/05/15 14:24:43;;;;;;;4.43;1.58;;;;;;;;;;4906928;28;20037;-96
2022/05/15 14:27:10;;;;;;;3.10;1.50;;;;;;;;;;4922597;29;20047;-96
2022/05/15 14:29:39;;;;;;;6.50;1.30;;;;;;;;;;4906730;29;20374;-95
2022/05/15 14:32:06;;;;;;;2.25;1.33;;;;;;;;;;4923182;29;20199;-96
2022/05/15 14:34:32;;;;;;;5.40;1.33;;;;;;;;;;4922769;29;20040;-94
2022/05/15 14:36:58;;;;;;;5.22;1.52;;;;;;;;;;4923407;29;20062;-96
2022/05/15 14:39:24;;;;;;;5.00;1.30;;;;;;;;;;4908240;29;20087;-95
2022/05/15 14:41:51;;;;;;;7.05;1.20;;;;;;;;;;4907287;29;20431;-95
2022/05/15 14:44:17;;;;;;;5.47;1.30;;;;;;;;;;4922543;29;20032;-96
2022/05/15 14:46:44;;;;;;;3.38;1.27;;;;;;;;;;4907966;29;20455;-96
2022/05/15 14:49:12;;;;;;;5.57;1.73;;;;;;;;;;4909607;29;20032;-95
2022/05/15 14:51:42;;;;;;;2.67;1.60;;;;;;;;;;4907677;29;20028;-95
2022/05/15 14:54:11;;;;;;;8.32;1.63;;;;;;;;;;4922440;29;20100;-95
2022/05/15 14:56:37;;;;;;;3.35;1.30;;;;;;;;;;4906722;29;20119;-96
2022/05/15 14:59:11;;;;;;;8.82;1.60;;;;;;;;;;4907942;28;20462;-96
2022/05/15 15:01:38;;;;;;;5.10;1.50;;;;;;;;;;5002149;28;20038;-96
2022/05/15 15:04:04;;;;;;;3.92;1.45;;;;;;;;;;5001255;28;20026;-95
2022/05/15 15:06:30;;;;;;;3.63;1.52;;;;;;;;;;5001274;28;20030;-96
2022/05/15 15:08:56;;;;;;;5.32;1.65;;;;;;;;;;5000242;28;20030;-96
2022/05/15 15:11:24;;;;;;;5.28;1.30;;;;;;;;;;4999992;28;20138;-95
2022/05/15 15:13:52;;;;;;;7.63;1.33;;;;;;;;;;5030279;23;20089;-94
2022/05/15 15:16:20;;;;;;;3.65;1.20;;;;;;;;;;5002830;28;20030;-94
2022/05/15 15:18:47;;;;;;;5.15;1.50;;;;;;;;;;5002440;28;20026;-94
2022/05/15 15:21:13;;;;;;;8.80;3.20;;;;;;;;;;5021389;28;20029;-92
2022/05/15 15:23:39;;;;;;;9.07;5.80;;;;;;;;;;5020032;28;20021;-92
2022/05/15 15:26:06;;;;;;;4.78;2.55;;;;;;;;;;5027323;28;20033;-93
2022/05/15 15:28:32;;;;;;;19.73;10.82;;;;;;;;;;5039538;28;20382;-94
2022/05/15 15:30:58;;;;;;;5.43;1.92;;;;;;;;;;5039260;28;20033;-95
2022/05/15 15:33:24;;;;;;;5.00;1.60;;;;;;;;;;5021987;28;20025;-93
2022/05/15 15:35:51;;;;;;;4.40;1.70;;;;;;;;;;5039509;28;20024;-91
2022/05/15 15:38:19;;;;;;;4.03;1.80;;;;;;;;;;5039177;28;20347;-93
2022/05/15 15:40:59;;;;;;;5.15;1.90;;;;;;;;;;5039256;28;20118;-91
2022/05/15 15:43:26;;;;;;;5.32;1.55;;;;;;;;;;5021625;28;20037;-92
2022/05/15 15:45:53;;;;;;;5.90;1.55;;;;;;;;;;5039051;28;20487;-93
2022/05/15 15:48:20;;;;;;;5.72;1.33;;;;;;;;;;5039026;28;20339;-94
2022/05/15 15:50:47;;;;;;;15.27;2.25;;;;;;;;;;5038926;28;20028;-93
2022/05/15 15:53:14;;;;;;;8.43;1.92;;;;;;;;;;5039761;28;20041;-94
2022/05/15 15:55:41;;;;;;;8.77;1.70;;;;;;;;;;5021409;28;20028;-94
2022/05/15 15:58:08;;;;;;;5.38;1.95;;;;;;;;;;5021436;28;20026;-93
2022/05/15 16:00:35;;;;;;;8.15;2.00;;;;;;;;;;5038879;28;20029;-95
2022/05/15 16:03:01;;;;;;;6.32;1.92;;;;;;;;;;5021235;28;20031;-95
2022/05/15 16:05:27;;;;;;;4.45;2.00;;;;;;;;;;5021494;28;20024;-95
2022/05/15 16:08:09;;;;;;;3.75;1.40;;;;;;;;;;5038682;28;20036;-93
2022/05/15 16:10:36;;;;;;;2.95;1.30;;;;;;;;;;5038630;28;20347;-95
2022/05/15 16:13:03;;;;;;;3.15;1.23;;;;;;;;;;5038377;28;20037;-94
2022/05/15 16:15:29;;;;;;;4.72;1.50;;;;;;;;;;5038424;28;20052;-94
2022/05/15 16:17:55;;;;;;;3.05;1.48;;;;;;;;;;5021263;28;20028;-94
2022/05/15 16:20:22;;;;;;;3.20;1.40;;;;;;;;;;5021122;28;20037;-94
2022/05/15 16:22:49;;;;;;;3.38;1.20;;;;;;;;;;5020981;28;20033;-94
2022/05/15 16:25:16;;;;;;;5.35;1.80;;;;;;;;;;5020860;28;20025;-94
2022/05/15 16:27:42;;;;;;;5.05;1.63;;;;;;;;;;5038049;28;20026;-94
2022/05/15 16:30:09;;;;;;;4.40;1.50;;;;;;;;;;5038418;28;20025;-93
2022/05/15 16:32:37;;;;;;;5.13;1.55;;;;;;;;;;5020243;28;20037;-94
2022/05/15 16:35:04;;;;;;;6.82;1.25;;;;;;;;;;5020633;28;20040;-94
2022/05/15 16:37:31;;;;;;;5.18;1.85;;;;;;;;;;5037410;28;20037;-94
2022/05/15 16:39:57;;;;;;;7.25;1.40;;;;;;;;;;5038235;28;20018;-94
2022/05/15 16:42:24;;;;;;;4.25;1.45;;;;;;;;;;5038098;28;20021;-95
2022/05/15 16:44:53;;;;;;;6.82;1.67;;;;;;;;;;5038010;28;20021;-93
2022/05/15 16:47:19;;;;;;;7.07;1.40;;;;;;;;;;5037776;28;20029;-94
2022/05/15 16:49:45;;;;;;;5.40;1.38;;;;;;;;;;5037837;28;20407;-95
2022/05/15 16:52:11;;;;;;;3.10;1.67;;;;;;;;;;5037815;28;20025;-94
2022/05/15 16:54:37;;;;;;;5.93;2.08;;;;;;;;;;5038005;28;20018;-94
2022/05/15 16:57:03;;;;;;;3.42;1.50;;;;;;;;;;5037900;28;20022;-94
2022/05/15 16:59:29;;;;;;;6.68;1.60;;;;;;;;;;5021050;28;20036;-94
2022/05/15 17:01:55;;;;;;;8.07;2.15;;;;;;;;;;5020291;28;20025;-93
2022/05/15 17:04:21;;;;;;;6.68;1.40;;;;;;;;;;5037796;28;20064;-95
2022/05/15 17:06:48;;;;;;;2.80;1.50;;;;;;;;;;5019968;28;20041;-94
2022/05/15 17:09:14;;;;;;;6.28;1.60;;;;;;;;;;5038095;28;20032;-93
2022/05/15 17:11:40;;;;;;;4.32;1.40;;;;;;;;;;5037558;28;20029;-94
2022/05/15 17:14:06;;;;;;;4.05;1.85;;;;;;;;;;5037455;28;20050;-93
2022/05/15 17:16:32;;;;;;;4.93;1.58;;;;;;;;;;5037426;28;20021;-94
2022/05/15 17:18:58;;;;;;;7.03;1.75;;;;;;;;;;5037520;28;20022;-95
2022/05/15 17:21:24;;;;;;;5.15;1.50;;;;;;;;;;5037533;28;20029;-94
2022/05/15 17:23:50;;;;;;;6.97;2.20;;;;;;;;;;5016362;28;20459;-94
2022/05/15 17:34:50;;;;;;;14.20;3.67;;;;;;;;;;5018960;28;20077;-94
2022/05/15 17:37:16;;;;;;;9.38;3.10;;;;;;;;;;5000749;28;20018;-94
2022/05/15 17:39:42;;;;;;;6.78;2.95;;;;;;;;;;5025180;28;20037;-95
2022/05/15 17:42:46;;;;;;;39.65;10.45;;;;;;;;;;5036846;28;20048;-89
2022/05/15 17:45:13;;;;;;;25.67;10.25;;;;;;;;;;5019724;28;20120;-90
2022/05/15 17:47:39;;;;;;;25.83;12.57;;;;;;;;;;5020611;28;20419;-90
2022/05/15 17:50:06;;;;;;;8.13;2.80;;;;;;;;;;5023899;28;20426;-89
2022/05/15 17:52:32;;;;;;;19.63;11.82;;;;;;;;;;5023834;28;20025;-90
2022/05/15 17:54:59;;;;;;;16.40;9.02;;;;;;;;;;5041052;28;20443;-91
2022/05/15 17:57:25;;;;;;;15.65;7.13;;;;;;;;;;5023357;28;20021;-89
2022/05/15 17:59:51;;;;;;;14.73;7.22;;;;;;;;;;5040929;28;20412;-90
2022/05/15 18:02:19;;;;;;;12.13;5.18;;;;;;;;;;5041030;28;20033;-90
2022/05/15 18:04:45;;;;;;;19.92;7.63;;;;;;;;;;5041175;28;20100;-89
2022/05/15 18:07:11;;;;;;;9.13;5.32;;;;;;;;;;5041022;28;20025;-89
2022/05/15 18:09:37;;;;;;;14.07;5.03;;;;;;;;;;5040792;28;20079;-90
2022/05/15 18:12:08;;;;;;;12.15;7.50;;;;;;;;;;5023214;28;20411;-91
2022/05/15 18:14:35;;;;;;;13.32;7.07;;;;;;;;;;5040760;28;20111;-90
2022/05/15 18:17:01;;;;;;;13.07;3.00;;;;;;;;;;5040867;28;20025;-90
2022/05/15 18:19:28;;;;;;;18.73;9.25;;;;;;;;;;5041081;28;20348;-90
2022/05/15 18:21:54;;;;;;;8.68;3.45;;;;;;;;;;5023285;28;20068;-90
2022/05/15 18:24:20;;;;;;;25.02;8.45;;;;;;;;;;5040748;28;20032;-89
2022/05/15 18:26:46;;;;;;;11.18;5.55;;;;;;;;;;5040566;28;20026;-90
2022/05/15 18:29:12;;;;;;;11.73;3.70;;;;;;;;;;5022718;28;20033;-90
2022/05/15 18:31:39;;;;;;;12.15;2.80;;;;;;;;;;5040310;28;20412;-91
2022/05/15 18:34:06;;;;;;;9.13;2.53;;;;;;;;;;5022977;28;20387;-90
2022/05/15 18:36:33;;;;;;;10.10;5.05;;;;;;;;;;5023014;28;20064;-90
2022/05/15 18:38:59;;;;;;;11.18;3.53;;;;;;;;;;5040620;28;20022;-89
2022/05/15 18:41:29;;;;;;;13.60;2.90;;;;;;;;;;5040468;28;20021;-89
2022/05/15 18:43:55;;;;;;;14.60;2.58;;;;;;;;;;5022823;28;20033;-90
2022/05/15 18:46:22;;;;;;;13.50;3.40;;;;;;;;;;5022878;28;20057;-89
2022/05/15 18:48:48;;;;;;;8.20;2.80;;;;;;;;;;5022939;28;20032;-90
2022/05/15 18:57:01;;;;;;;10.98;3.85;;;;;;;;;;5040428;28;20036;-90
2022/05/15 18:59:27;;;;;;;8.85;3.60;;;;;;;;;;5021793;28;20367;-90
2022/05/15 19:01:54;;;;;;;14.43;3.60;;;;;;;;;;5039958;28;20037;-90
2022/05/15 19:04:20;;;;;;;9.32;3.10;;;;;;;;;;5040060;28;20092;-90
2022/05/15 19:06:46;;;;;;;14.20;4.28;;;;;;;;;;5039560;28;20030;-89
2022/05/15 19:09:13;;;;;;;8.73;3.70;;;;;;;;;;5039737;28;20049;-89
2022/05/15 19:11:39;;;;;;;11.00;4.00;;;;;;;;;;5039522;28;20035;-89
2022/05/15 19:14:07;;;;;;;15.30;3.60;;;;;;;;;;5021178;28;20050;-90
2022/05/15 19:16:33;;;;;;;8.45;3.38;;;;;;;;;;5028892;28;20355;-90
2022/05/15 19:18:59;;;;;;;10.88;3.30;;;;;;;;;;5039679;28;20053;-91
2022/05/15 19:21:25;;;;;;;12.98;3.35;;;;;;;;;;5039596;28;20471;-89
2022/05/15 19:23:52;;;;;;;13.40;3.70;;;;;;;;;;5039496;28;20419;-91
2022/05/15 19:26:18;;;;;;;11.48;3.17;;;;;;;;;;5038559;28;20033;-90
2022/05/15 19:28:44;;;;;;;12.98;2.92;;;;;;;;;;5021679;28;20026;-89
2022/05/15 19:31:10;;;;;;;11.00;3.63;;;;;;;;;;5039278;28;20049;-88
2022/05/15 19:33:37;;;;;;;15.50;3.90;;;;;;;;;;5021387;28;20097;-88
2022/05/15 19:36:03;;;;;;;16.15;3.80;;;;;;;;;;5039633;28;20419;-89
2022/05/15 19:38:32;;;;;;;14.27;3.47;;;;;;;;;;5039269;28;20397;-88
2022/05/15 19:41:00;;;;;;;12.30;3.33;;;;;;;;;;5021174;28;20037;-89
2022/05/15 19:43:26;;;;;;;8.43;4.03;;;;;;;;;;5039320;28;20044;-90
2022/05/15 19:45:54;;;;;;;10.43;3.50;;;;;;;;;;5021290;28;20061;-89
2022/05/15 19:48:20;;;;;;;11.20;3.47;;;;;;;;;;5021502;28;20029;-88
2022/05/15 19:50:47;;;;;;;9.23;2.95;;;;;;;;;;5038651;28;20105;-89
2022/05/15 19:53:14;;;;;;;10.23;2.75;;;;;;;;;;5020541;28;20021;-90
2022/05/15 19:55:42;;;;;;;10.18;2.80;;;;;;;;;;5021043;28;20411;-89
2022/05/15 19:58:10;;;;;;;11.13;2.60;;;;;;;;;;5038792;28;20080;-94
2022/05/15 20:00:38;;;;;;;11.40;2.75;;;;;;;;;;5021331;28;20029;-89
2022/05/15 20:03:05;;;;;;;7.28;2.42;;;;;;;;;;5021403;28;20067;-88
2022/05/15 20:13:47;;;;;;;8.07;3.33;;;;;;;;;;5038474;28;20121;-89
2022/05/15 20:16:14;;;;;;;7.93;3.42;;;;;;;;;;5021063;28;20407;-89
2022/05/15 20:18:40;;;;;;;10.75;3.42;;;;;;;;;;5038499;28;20053;-89
2022/05/15 20:21:07;;;;;;;16.88;3.88;;;;;;;;;;5020484;28;20029;-89
2022/05/15 20:23:34;;;;;;;9.38;3.42;;;;;;;;;;5020604;28;20136;-90
2022/05/15 20:26:00;;;;;;;13.73;3.22;;;;;;;;;;5038293;28;20017;-89
2022/05/15 20:28:26;;;;;;;15.45;4.35;;;;;;;;;;5038548;28;20067;-89
2022/05/15 20:30:52;;;;;;;8.70;3.50;;;;;;;;;;5038137;28;20033;-90
2022/05/15 20:33:19;;;;;;;10.18;3.35;;;;;;;;;;5038541;28;20037;-89
2022/05/15 20:35:45;;;;;;;11.10;3.33;;;;;;;;;;5038656;28;20017;-90
2022/05/15 20:38:11;;;;;;;11.90;3.40;;;;;;;;;;5038207;28;20026;-90
2022/05/15 20:40:37;;;;;;;10.82;3.17;;;;;;;;;;5038037;28;20041;-89
2022/05/15 20:49:11;;;;;;;16.25;4.10;;;;;;;;;;5038188;28;20056;-88
2022/05/15 20:51:40;;;;;;;8.52;3.92;;;;;;;;;;5020593;28;20026;-89
2022/05/15 20:54:07;;;;;;;8.20;3.42;;;;;;;;;;5037887;28;20434;-89
2022/05/15 20:56:33;;;;;;;9.23;4.10;;;;;;;;;;5037776;28;20026;-88
2022/05/15 21:04:50;;;;;;;10.32;4.05;;;;;;;;;;4995145;28;20066;-90
2022/05/15 21:07:16;;;;;;;13.93;4.22;;;;;;;;;;4981626;28;20320;-89
2022/05/15 21:09:42;;;;;;;14.98;4.90;;;;;;;;;;4998155;28;20015;-90
2022/05/15 21:12:09;;;;;;;8.93;3.90;;;;;;;;;;4998194;28;20109;-89
2022/05/15 21:14:36;;;;;;;9.75;4.15;;;;;;;;;;4997915;28;20027;-89
2022/05/15 21:17:03;;;;;;;17.85;4.35;;;;;;;;;;4998117;28;20030;-89
2022/05/15 21:19:29;;;;;;;13.40;4.93;;;;;;;;;;4991886;28;20022;-90
2022/05/15 21:21:56;;;;;;;12.98;5.10;;;;;;;;;;4992169;28;20105;-91
2022/05/15 21:24:22;;;;;;;13.52;5.30;;;;;;;;;;4980213;28;20038;-92
2022/05/15 21:26:48;;;;;;;13.55;4.75;;;;;;;;;;4995793;28;20026;-90